sensor_id;sensor_type;location;lat;lon;timestamp;P1;durP1;ratioP1;P2;durP2;ratioP2
10900;SDS011;5503;53.208;10.392;2023-04-03T00:00:31;9.60;;;2.83;;
10900;SDS011;5503;53.208;10.392;2023-04-03T00:02:58;4.57;;;2.53;;
10900;SDS011;5503;53.208;10.392;2023-04-03T00:05:25;6.93;;;2.77;;
10900;SDS011;5503;53.208;10.392;2023-04-03T00:07:53;10.40;;;2.53;;
10900;SDS011;5503;53.208;10.392;2023-04-03T00:10:20;5.78;;;2.70;;
10900;SDS011;5503;53.208;10.392;2023-04-03T00:12:49;9.68;;;2.30;;
10900;SDS011;5503;53.208;10.392;2023-04-03T00:15:16;4.75;;;2.65;;
10900;SDS011;5503;53.208;10.392;2023-04-03T00:17:43;5.90;;;2.57;;
10900;SDS011;5503;53.208;10.392;2023-04-03T00:20:10;6.57;;;2.30;;
10900;SDS011;5503;53.208;10.392;2023-04-03T00:22:38;7.72;;;2.80;;
10900;SDS011;5503;53.208;10.392;2023-04-03T00:25:05;7.15;;;2.67;;
10900;SDS011;5503;53.208;10.392;2023-04-03T00:27:33;5.63;;;2.55;;
10900;SDS011;5503;53.208;10.392;2023-04-03T00:30:04;6.33;;;2.90;;
10900;SDS011;5503;53.208;10.392;2023-04-03T00:32:32;8.68;;;3.10;;
10900;SDS011;5503;53.208;10.392;2023-04-03T00:34:59;6.82;;;2.22;;
10900;SDS011;5503;53.208;10.392;2023-04-03T00:37:27;7.43;;;2.78;;
10900;SDS011;5503;53.208;10.392;2023-04-03T00:39:54;5.80;;;2.90;;
10900;SDS011;5503;53.208;10.392;2023-04-03T00:42:21;5.47;;;2.90;;
10900;SDS011;5503;53.208;10.392;2023-04-03T00:47:52;8.18;;;3.00;;
10900;SDS011;5503;53.208;10.392;2023-04-03T00:50:20;7.53;;;2.85;;
10900;SDS011;5503;53.208;10.392;2023-04-03T00:52:48;7.70;;;2.80;;
10900;SDS011;5503;53.208;10.392;2023-04-03T00:55:15;5.77;;;2.53;;
10900;SDS011;5503;53.208;10.392;2023-04-03T00:57:43;9.80;;;3.28;;
10900;SDS011;5503;53.208;10.392;2023-04-03T01:00:13;6.43;;;2.97;;
10900;SDS011;5503;53.208;10.392;2023-04-03T01:02:44;5.80;;;2.90;;
10900;SDS011;5503;53.208;10.392;2023-04-03T01:05:11;7.18;;;2.92;;
10900;SDS011;5503;53.208;10.392;2023-04-03T01:07:41;6.63;;;3.00;;
10900;SDS011;5503;53.208;10.392;2023-04-03T01:10:09;5.22;;;2.45;;
10900;SDS011;5503;53.208;10.392;2023-04-03T01:12:39;6.82;;;3.15;;
10900;SDS011;5503;53.208;10.392;2023-04-03T01:15:08;9.40;;;2.95;;
10900;SDS011;5503;53.208;10.392;2023-04-03T01:17:38;6.72;;;2.78;;
10900;SDS011;5503;53.208;10.392;2023-04-03T01:23:25;8.52;;;2.80;;
10900;SDS011;5503;53.208;10.392;2023-04-03T01:26:03;7.78;;;3.22;;
10900;SDS011;5503;53.208;10.392;2023-04-03T01:28:31;6.95;;;2.80;;
10900;SDS011;5503;53.208;10.392;2023-04-03T01:31:01;16.35;;;3.45;;
10900;SDS011;5503;53.208;10.392;2023-04-03T01:33:36;9.40;;;3.17;;
10900;SDS011;5503;53.208;10.392;2023-04-03T01:36:04;12.80;;;3.97;;
10900;SDS011;5503;53.208;10.392;2023-04-03T01:38:33;6.70;;;3.10;;
10900;SDS011;5503;53.208;10.392;2023-04-03T01:41:00;12.90;;;3.75;;
10900;SDS011;5503;53.208;10.392;2023-04-03T01:43:27;8.30;;;3.33;;
10900;SDS011;5503;53.208;10.392;2023-04-03T01:45:54;7.43;;;2.67;;
10900;SDS011;5503;53.208;10.392;2023-04-03T01:48:22;6.90;;;2.58;;
10900;SDS011;5503;53.208;10.392;2023-04-03T01:50:50;7.28;;;3.10;;
10900;SDS011;5503;53.208;10.392;2023-04-03T01:53:17;6.00;;;3.00;;
10900;SDS011;5503;53.208;10.392;2023-04-03T01:55:45;5.80;;;2.90;;
10900;SDS011;5503;53.208;10.392;2023-04-03T01:58:12;6.50;;;2.80;;
10900;SDS011;5503;53.208;10.392;2023-04-03T02:00:39;7.40;;;2.85;;
10900;SDS011;5503;53.208;10.392;2023-04-03T02:03:06;9.77;;;2.83;;
10900;SDS011;5503;53.208;10.392;2023-04-03T02:05:33;5.78;;;2.75;;
10900;SDS011;5503;53.208;10.392;2023-04-03T02:08:02;6.60;;;2.80;;
10900;SDS011;5503;53.208;10.392;2023-04-03T02:13:05;10.18;;;3.13;;
10900;SDS011;5503;53.208;10.392;2023-04-03T02:15:32;7.97;;;3.30;;
10900;SDS011;5503;53.208;10.392;2023-04-03T02:18:00;6.28;;;2.80;;
10900;SDS011;5503;53.208;10.392;2023-04-03T02:20:27;5.63;;;2.78;;
10900;SDS011;5503;53.208;10.392;2023-04-03T02:22:54;7.27;;;2.60;;
10900;SDS011;5503;53.208;10.392;2023-04-03T02:25:23;6.63;;;2.65;;
10900;SDS011;5503;53.208;10.392;2023-04-03T02:27:50;6.10;;;2.88;;
10900;SDS011;5503;53.208;10.392;2023-04-03T02:30:17;9.35;;;3.22;;
10900;SDS011;5503;53.208;10.392;2023-04-03T02:32:45;6.57;;;3.00;;
10900;SDS011;5503;53.208;10.392;2023-04-03T02:35:12;8.13;;;3.43;;
10900;SDS011;5503;53.208;10.392;2023-04-03T02:37:39;6.70;;;3.00;;
10900;SDS011;5503;53.208;10.392;2023-04-03T02:40:07;7.20;;;3.17;;
10900;SDS011;5503;53.208;10.392;2023-04-03T02:42:37;6.35;;;3.08;;
10900;SDS011;5503;53.208;10.392;2023-04-03T02:45:05;6.50;;;3.20;;
10900;SDS011;5503;53.208;10.392;2023-04-03T02:47:32;6.47;;;2.30;;
10900;SDS011;5503;53.208;10.392;2023-04-03T02:50:00;7.22;;;3.00;;
10900;SDS011;5503;53.208;10.392;2023-04-03T02:52:27;7.63;;;3.45;;
10900;SDS011;5503;53.208;10.392;2023-04-03T02:54:54;7.85;;;3.55;;
10900;SDS011;5503;53.208;10.392;2023-04-03T02:57:21;6.97;;;3.20;;
10900;SDS011;5503;53.208;10.392;2023-04-03T02:59:50;7.57;;;3.33;;
10900;SDS011;5503;53.208;10.392;2023-04-03T03:02:16;7.93;;;3.10;;
10900;SDS011;5503;53.208;10.392;2023-04-03T03:04:44;10.40;;;3.00;;
10900;SDS011;5503;53.208;10.392;2023-04-03T03:07:11;7.85;;;3.05;;
10900;SDS011;5503;53.208;10.392;2023-04-03T03:09:38;6.40;;;2.95;;
10900;SDS011;5503;53.208;10.392;2023-04-03T03:12:05;5.57;;;2.60;;
10900;SDS011;5503;53.208;10.392;2023-04-03T03:14:32;10.85;;;2.75;;
10900;SDS011;5503;53.208;10.392;2023-04-03T03:17:01;10.15;;;3.55;;
10900;SDS011;5503;53.208;10.392;2023-04-03T03:19:28;6.90;;;2.92;;
10900;SDS011;5503;53.208;10.392;2023-04-03T03:21:55;7.20;;;3.03;;
10900;SDS011;5503;53.208;10.392;2023-04-03T03:24:23;8.23;;;2.93;;
10900;SDS011;5503;53.208;10.392;2023-04-03T03:26:50;9.52;;;3.35;;
10900;SDS011;5503;53.208;10.392;2023-04-03T03:29:17;10.25;;;2.92;;
10900;SDS011;5503;53.208;10.392;2023-04-03T03:31:44;4.65;;;2.83;;
10900;SDS011;5503;53.208;10.392;2023-04-03T03:34:13;11.18;;;3.30;;
10900;SDS011;5503;53.208;10.392;2023-04-03T03:36:40;7.60;;;3.23;;
10900;SDS011;5503;53.208;10.392;2023-04-03T03:39:07;10.40;;;2.90;;
10900;SDS011;5503;53.208;10.392;2023-04-03T03:41:34;9.93;;;3.10;;
10900;SDS011;5503;53.208;10.392;2023-04-03T03:44:02;7.78;;;3.30;;
10900;SDS011;5503;53.208;10.392;2023-04-03T03:46:29;5.78;;;2.78;;
10900;SDS011;5503;53.208;10.392;2023-04-03T03:48:56;6.57;;;2.70;;
10900;SDS011;5503;53.208;10.392;2023-04-03T03:51:25;8.00;;;3.10;;
10900;SDS011;5503;53.208;10.392;2023-04-03T03:53:52;5.25;;;2.67;;
10900;SDS011;5503;53.208;10.392;2023-04-03T03:56:20;6.97;;;2.88;;
10900;SDS011;5503;53.208;10.392;2023-04-03T03:58:47;10.82;;;3.00;;
10900;SDS011;5503;53.208;10.392;2023-04-03T04:01:14;5.97;;;2.40;;
10900;SDS011;5503;53.208;10.392;2023-04-03T04:03:41;6.80;;;3.22;;
10900;SDS011;5503;53.208;10.392;2023-04-03T04:06:09;8.07;;;3.03;;
10900;SDS011;5503;53.208;10.392;2023-04-03T04:08:37;5.57;;;2.75;;
10900;SDS011;5503;53.208;10.392;2023-04-03T04:11:04;7.05;;;2.90;;
10900;SDS011;5503;53.208;10.392;2023-04-03T04:13:31;10.57;;;3.20;;
10900;SDS011;5503;53.208;10.392;2023-04-03T04:15:59;5.60;;;2.92;;
10900;SDS011;5503;53.208;10.392;2023-04-03T04:18:26;7.05;;;3.25;;
10900;SDS011;5503;53.208;10.392;2023-04-03T04:20:53;7.25;;;2.80;;
10900;SDS011;5503;53.208;10.392;2023-04-03T04:23:20;6.40;;;3.10;;
10900;SDS011;5503;53.208;10.392;2023-04-03T04:25:49;8.50;;;2.57;;
10900;SDS011;5503;53.208;10.392;2023-04-03T04:28:16;6.90;;;2.60;;
10900;SDS011;5503;53.208;10.392;2023-04-03T04:30:43;6.72;;;2.80;;
10900;SDS011;5503;53.208;10.392;2023-04-03T04:33:10;7.32;;;3.05;;
10900;SDS011;5503;53.208;10.392;2023-04-03T04:35:39;8.38;;;3.28;;
10900;SDS011;5503;53.208;10.392;2023-04-03T04:38:06;5.33;;;2.97;;
10900;SDS011;5503;53.208;10.392;2023-04-03T04:40:33;6.68;;;2.50;;
10900;SDS011;5503;53.208;10.392;2023-04-03T04:43:04;9.32;;;3.35;;
10900;SDS011;5503;53.208;10.392;2023-04-03T04:45:31;5.95;;;2.92;;
10900;SDS011;5503;53.208;10.392;2023-04-03T04:47:58;6.13;;;3.22;;
10900;SDS011;5503;53.208;10.392;2023-04-03T04:50:25;10.13;;;2.30;;
10900;SDS011;5503;53.208;10.392;2023-04-03T04:52:52;9.80;;;3.42;;
10900;SDS011;5503;53.208;10.392;2023-04-03T04:55:19;8.77;;;3.53;;
10900;SDS011;5503;53.208;10.392;2023-04-03T04:57:46;7.95;;;3.40;;
10900;SDS011;5503;53.208;10.392;2023-04-03T05:00:16;8.02;;;3.33;;
10900;SDS011;5503;53.208;10.392;2023-04-03T05:02:43;8.27;;;2.90;;
10900;SDS011;5503;53.208;10.392;2023-04-03T05:05:10;5.63;;;2.63;;
10900;SDS011;5503;53.208;10.392;2023-04-03T05:07:38;7.72;;;2.88;;
10900;SDS011;5503;53.208;10.392;2023-04-03T05:10:06;7.85;;;3.00;;
10900;SDS011;5503;53.208;10.392;2023-04-03T05:12:34;5.97;;;2.85;;
10900;SDS011;5503;53.208;10.392;2023-04-03T05:15:02;7.47;;;3.10;;
10900;SDS011;5503;53.208;10.392;2023-04-03T05:17:30;7.30;;;3.10;;
10900;SDS011;5503;53.208;10.392;2023-04-03T05:19:57;8.88;;;3.13;;
10900;SDS011;5503;53.208;10.392;2023-04-03T05:22:24;6.35;;;3.20;;
10900;SDS011;5503;53.208;10.392;2023-04-03T05:24:52;10.15;;;3.40;;
10900;SDS011;5503;53.208;10.392;2023-04-03T05:27:19;7.27;;;3.30;;
10900;SDS011;5503;53.208;10.392;2023-04-03T05:29:46;6.82;;;2.83;;
10900;SDS011;5503;53.208;10.392;2023-04-03T05:32:13;7.25;;;3.25;;
10900;SDS011;5503;53.208;10.392;2023-04-03T05:34:42;6.07;;;2.90;;
10900;SDS011;5503;53.208;10.392;2023-04-03T05:37:08;9.15;;;3.42;;
10900;SDS011;5503;53.208;10.392;2023-04-03T05:39:36;6.90;;;3.30;;
10900;SDS011;5503;53.208;10.392;2023-04-03T05:42:03;8.20;;;3.20;;
10900;SDS011;5503;53.208;10.392;2023-04-03T05:44:30;12.00;;;3.40;;
10900;SDS011;5503;53.208;10.392;2023-04-03T05:46:57;6.85;;;3.28;;
10900;SDS011;5503;53.208;10.392;2023-04-03T05:49:25;8.60;;;3.53;;
10900;SDS011;5503;53.208;10.392;2023-04-03T05:51:53;10.27;;;3.60;;
10900;SDS011;5503;53.208;10.392;2023-04-03T05:54:21;6.85;;;3.40;;
10900;SDS011;5503;53.208;10.392;2023-04-03T05:56:51;16.33;;;3.60;;
10900;SDS011;5503;53.208;10.392;2023-04-03T05:59:18;6.55;;;2.97;;
10900;SDS011;5503;53.208;10.392;2023-04-03T06:01:46;6.72;;;3.47;;
10900;SDS011;5503;53.208;10.392;2023-04-03T06:04:13;6.00;;;3.40;;
10900;SDS011;5503;53.208;10.392;2023-04-03T06:06:44;7.53;;;3.30;;
10900;SDS011;5503;53.208;10.392;2023-04-03T06:09:14;6.38;;;3.33;;
10900;SDS011;5503;53.208;10.392;2023-04-03T06:11:41;8.43;;;3.33;;
10900;SDS011;5503;53.208;10.392;2023-04-03T06:14:09;11.57;;;4.30;;
10900;SDS011;5503;53.208;10.392;2023-04-03T06:16:36;7.40;;;3.43;;
10900;SDS011;5503;53.208;10.392;2023-04-03T06:19:04;6.65;;;3.35;;
10900;SDS011;5503;53.208;10.392;2023-04-03T06:21:32;8.05;;;4.03;;
10900;SDS011;5503;53.208;10.392;2023-04-03T06:24:00;8.50;;;3.13;;
10900;SDS011;5503;53.208;10.392;2023-04-03T06:26:29;6.65;;;3.55;;
10900;SDS011;5503;53.208;10.392;2023-04-03T06:28:56;7.90;;;3.27;;
10900;SDS011;5503;53.208;10.392;2023-04-03T06:31:23;12.93;;;3.05;;
10900;SDS011;5503;53.208;10.392;2023-04-03T06:33:50;6.75;;;2.72;;
10900;SDS011;5503;53.208;10.392;2023-04-03T06:36:18;10.55;;;2.88;;
10900;SDS011;5503;53.208;10.392;2023-04-03T06:38:46;9.65;;;3.13;;
10900;SDS011;5503;53.208;10.392;2023-04-03T06:41:13;5.93;;;2.57;;
10900;SDS011;5503;53.208;10.392;2023-04-03T06:43:42;5.65;;;2.08;;
10900;SDS011;5503;53.208;10.392;2023-04-03T06:46:12;7.50;;;2.47;;
10900;SDS011;5503;53.208;10.392;2023-04-03T06:48:41;8.50;;;2.92;;
10900;SDS011;5503;53.208;10.392;2023-04-03T06:51:12;5.25;;;2.90;;
10900;SDS011;5503;53.208;10.392;2023-04-03T06:53:43;10.77;;;3.43;;
10900;SDS011;5503;53.208;10.392;2023-04-03T06:56:11;6.20;;;2.70;;
10900;SDS011;5503;53.208;10.392;2023-04-03T06:58:38;5.15;;;2.55;;
10900;SDS011;5503;53.208;10.392;2023-04-03T07:01:07;10.38;;;2.60;;
10900;SDS011;5503;53.208;10.392;2023-04-03T07:03:34;8.07;;;2.72;;
10900;SDS011;5503;53.208;10.392;2023-04-03T07:06:02;7.17;;;2.20;;
10900;SDS011;5503;53.208;10.392;2023-04-03T07:08:29;6.20;;;2.10;;
10900;SDS011;5503;53.208;10.392;2023-04-03T07:10:56;5.93;;;1.90;;
10900;SDS011;5503;53.208;10.392;2023-04-03T07:13:24;8.75;;;2.22;;
10900;SDS011;5503;53.208;10.392;2023-04-03T07:15:51;6.55;;;2.40;;
10900;SDS011;5503;53.208;10.392;2023-04-03T07:18:20;4.37;;;2.00;;
10900;SDS011;5503;53.208;10.392;2023-04-03T07:20:47;7.70;;;2.22;;
10900;SDS011;5503;53.208;10.392;2023-04-03T07:23:15;7.75;;;1.92;;
10900;SDS011;5503;53.208;10.392;2023-04-03T07:25:42;5.43;;;2.03;;
10900;SDS011;5503;53.208;10.392;2023-04-03T07:28:10;6.75;;;1.90;;
10900;SDS011;5503;53.208;10.392;2023-04-03T07:30:41;3.40;;;1.50;;
10900;SDS011;5503;53.208;10.392;2023-04-03T07:33:10;3.30;;;1.67;;
10900;SDS011;5503;53.208;10.392;2023-04-03T07:35:39;7.88;;;2.35;;
10900;SDS011;5503;53.208;10.392;2023-04-03T07:38:07;4.53;;;1.90;;
10900;SDS011;5503;53.208;10.392;2023-04-03T07:40:34;5.32;;;1.90;;
10900;SDS011;5503;53.208;10.392;2023-04-03T07:43:01;3.20;;;1.40;;
10900;SDS011;5503;53.208;10.392;2023-04-03T07:45:29;5.45;;;1.73;;
10900;SDS011;5503;53.208;10.392;2023-04-03T07:48:00;5.85;;;2.00;;
10900;SDS011;5503;53.208;10.392;2023-04-03T07:50:28;4.85;;;1.60;;
10900;SDS011;5503;53.208;10.392;2023-04-03T07:52:57;5.18;;;1.98;;
10900;SDS011;5503;53.208;10.392;2023-04-03T07:55:24;5.27;;;1.70;;
10900;SDS011;5503;53.208;10.392;2023-04-03T07:57:51;6.03;;;1.98;;
10900;SDS011;5503;53.208;10.392;2023-04-03T08:00:18;4.20;;;1.88;;
10900;SDS011;5503;53.208;10.392;2023-04-03T08:02:46;3.88;;;1.77;;
10900;SDS011;5503;53.208;10.392;2023-04-03T08:05:15;6.53;;;1.98;;
10900;SDS011;5503;53.208;10.392;2023-04-03T08:07:42;4.17;;;1.20;;
10900;SDS011;5503;53.208;10.392;2023-04-03T08:10:11;4.80;;;1.63;;
10900;SDS011;5503;53.208;10.392;2023-04-03T08:12:38;4.43;;;1.60;;
10900;SDS011;5503;53.208;10.392;2023-04-03T08:15:06;7.10;;;2.03;;
10900;SDS011;5503;53.208;10.392;2023-04-03T08:17:34;5.60;;;2.15;;
10900;SDS011;5503;53.208;10.392;2023-04-03T08:20:01;3.17;;;1.00;;
10900;SDS011;5503;53.208;10.392;2023-04-03T08:22:29;4.35;;;1.33;;
10900;SDS011;5503;53.208;10.392;2023-04-03T08:24:57;4.55;;;1.70;;
10900;SDS011;5503;53.208;10.392;2023-04-03T08:27:25;3.90;;;1.42;;
10900;SDS011;5503;53.208;10.392;2023-04-03T08:29:52;5.82;;;1.30;;
10900;SDS011;5503;53.208;10.392;2023-04-03T08:32:19;3.37;;;1.40;;
10900;SDS011;5503;53.208;10.392;2023-04-03T08:34:47;4.07;;;1.60;;
10900;SDS011;5503;53.208;10.392;2023-04-03T08:37:14;3.13;;;1.50;;
10900;SDS011;5503;53.208;10.392;2023-04-03T08:39:42;4.93;;;1.67;;
10900;SDS011;5503;53.208;10.392;2023-04-03T08:42:12;3.55;;;1.50;;
10900;SDS011;5503;53.208;10.392;2023-04-03T08:44:48;4.23;;;1.70;;
10900;SDS011;5503;53.208;10.392;2023-04-03T08:47:23;4.60;;;1.70;;
10900;SDS011;5503;53.208;10.392;2023-04-03T08:49:55;4.82;;;1.40;;
10900;SDS011;5503;53.208;10.392;2023-04-03T08:52:26;5.40;;;1.52;;
10900;SDS011;5503;53.208;10.392;2023-04-03T08:55:00;3.22;;;1.27;;
10900;SDS011;5503;53.208;10.392;2023-04-03T08:57:31;5.03;;;1.60;;
10900;SDS011;5503;53.208;10.392;2023-04-03T09:00:04;5.28;;;1.70;;
10900;SDS011;5503;53.208;10.392;2023-04-03T09:02:34;3.80;;;1.48;;
10900;SDS011;5503;53.208;10.392;2023-04-03T09:05:09;5.38;;;1.40;;
10900;SDS011;5503;53.208;10.392;2023-04-03T09:07:39;7.15;;;1.25;;
10900;SDS011;5503;53.208;10.392;2023-04-03T09:10:10;7.27;;;1.50;;
10900;SDS011;5503;53.208;10.392;2023-04-03T09:12:41;4.22;;;1.35;;
10900;SDS011;5503;53.208;10.392;2023-04-03T09:15:18;3.35;;;1.25;;
10900;SDS011;5503;53.208;10.392;2023-04-03T09:17:50;3.60;;;1.58;;
10900;SDS011;5503;53.208;10.392;2023-04-03T09:20:25;5.20;;;1.65;;
10900;SDS011;5503;53.208;10.392;2023-04-03T09:23:00;8.27;;;1.40;;
10900;SDS011;5503;53.208;10.392;2023-04-03T09:25:31;4.15;;;1.20;;
10900;SDS011;5503;53.208;10.392;2023-04-03T09:28:02;4.47;;;1.60;;
10900;SDS011;5503;53.208;10.392;2023-04-03T09:30:36;5.30;;;1.65;;
10900;SDS011;5503;53.208;10.392;2023-04-03T09:33:04;4.05;;;1.42;;
10900;SDS011;5503;53.208;10.392;2023-04-03T09:35:35;3.67;;;1.17;;
10900;SDS011;5503;53.208;10.392;2023-04-03T09:38:14;5.30;;;1.60;;
10900;SDS011;5503;53.208;10.392;2023-04-03T09:40:43;3.10;;;1.13;;
10900;SDS011;5503;53.208;10.392;2023-04-03T09:43:22;4.22;;;1.30;;
10900;SDS011;5503;53.208;10.392;2023-04-03T09:45:55;4.50;;;1.67;;
10900;SDS011;5503;53.208;10.392;2023-04-03T09:48:49;5.93;;;1.70;;
10900;SDS011;5503;53.208;10.392;2023-04-03T09:51:17;3.88;;;1.48;;
10900;SDS011;5503;53.208;10.392;2023-04-03T09:53:44;4.78;;;1.90;;
10900;SDS011;5503;53.208;10.392;2023-04-03T09:56:22;3.17;;;1.30;;
10900;SDS011;5503;53.208;10.392;2023-04-03T09:58:52;3.88;;;1.65;;
10900;SDS011;5503;53.208;10.392;2023-04-03T10:01:42;4.20;;;1.50;;
10900;SDS011;5503;53.208;10.392;2023-04-03T10:04:22;5.20;;;1.58;;
10900;SDS011;5503;53.208;10.392;2023-04-03T10:06:50;3.92;;;1.50;;
10900;SDS011;5503;53.208;10.392;2023-04-03T10:09:19;3.90;;;1.40;;
10900;SDS011;5503;53.208;10.392;2023-04-03T10:11:56;3.40;;;1.70;;
10900;SDS011;5503;53.208;10.392;2023-04-03T10:14:30;3.67;;;1.30;;
10900;SDS011;5503;53.208;10.392;2023-04-03T10:17:01;3.85;;;1.70;;
10900;SDS011;5503;53.208;10.392;2023-04-03T10:19:37;4.45;;;1.40;;
10900;SDS011;5503;53.208;10.392;2023-04-03T10:22:18;6.78;;;1.38;;
10900;SDS011;5503;53.208;10.392;2023-04-03T10:24:52;3.38;;;1.20;;
10900;SDS011;5503;53.208;10.392;2023-04-03T10:27:28;3.83;;;1.37;;
10900;SDS011;5503;53.208;10.392;2023-04-03T10:30:04;3.95;;;1.70;;
10900;SDS011;5503;53.208;10.392;2023-04-03T10:32:48;3.78;;;1.33;;
10900;SDS011;5503;53.208;10.392;2023-04-03T10:35:26;4.32;;;1.40;;
10900;SDS011;5503;53.208;10.392;2023-04-03T10:38:04;2.90;;;1.35;;
10900;SDS011;5503;53.208;10.392;2023-04-03T10:40:41;3.53;;;1.50;;
10900;SDS011;5503;53.208;10.392;2023-04-03T10:43:18;4.20;;;1.30;;
10900;SDS011;5503;53.208;10.392;2023-04-03T10:45:55;3.17;;;1.40;;
10900;SDS011;5503;53.208;10.392;2023-04-03T10:48:31;4.25;;;1.35;;
10900;SDS011;5503;53.208;10.392;2023-04-03T10:51:06;3.13;;;1.13;;
10900;SDS011;5503;53.208;10.392;2023-04-03T10:53:44;6.20;;;1.60;;
10900;SDS011;5503;53.208;10.392;2023-04-03T10:56:21;5.60;;;1.45;;
10900;SDS011;5503;53.208;10.392;2023-04-03T10:58:56;5.80;;;1.60;;
10900;SDS011;5503;53.208;10.392;2023-04-03T11:01:29;7.82;;;1.60;;
10900;SDS011;5503;53.208;10.392;2023-04-03T11:04:00;3.78;;;1.42;;
10900;SDS011;5503;53.208;10.392;2023-04-03T11:06:34;2.97;;;1.20;;
10900;SDS011;5503;53.208;10.392;2023-04-03T11:09:07;3.88;;;1.48;;
10900;SDS011;5503;53.208;10.392;2023-04-03T11:11:44;3.13;;;1.45;;
10900;SDS011;5503;53.208;10.392;2023-04-03T11:14:14;4.15;;;1.50;;
10900;SDS011;5503;53.208;10.392;2023-04-03T11:16:50;3.50;;;1.30;;
10900;SDS011;5503;53.208;10.392;2023-04-03T11:19:28;4.00;;;1.30;;
10900;SDS011;5503;53.208;10.392;2023-04-03T11:22:02;4.20;;;1.80;;
10900;SDS011;5503;53.208;10.392;2023-04-03T11:24:36;3.10;;;1.40;;
10900;SDS011;5503;53.208;10.392;2023-04-03T11:27:08;3.30;;;1.30;;
10900;SDS011;5503;53.208;10.392;2023-04-03T11:29:42;6.55;;;1.30;;
10900;SDS011;5503;53.208;10.392;2023-04-03T11:32:16;2.67;;;0.97;;
10900;SDS011;5503;53.208;10.392;2023-04-03T11:34:56;4.47;;;1.30;;
10900;SDS011;5503;53.208;10.392;2023-04-03T11:37:28;4.80;;;1.55;;
10900;SDS011;5503;53.208;10.392;2023-04-03T11:40:01;5.63;;;2.05;;
10900;SDS011;5503;53.208;10.392;2023-04-03T11:42:34;7.15;;;1.55;;
10900;SDS011;5503;53.208;10.392;2023-04-03T11:45:25;7.00;;;1.10;;
10900;SDS011;5503;53.208;10.392;2023-04-03T11:48:02;3.20;;;1.10;;
10900;SDS011;5503;53.208;10.392;2023-04-03T11:50:43;4.05;;;1.42;;
10900;SDS011;5503;53.208;10.392;2023-04-03T11:53:33;3.33;;;1.33;;
10900;SDS011;5503;53.208;10.392;2023-04-03T11:56:03;5.65;;;1.40;;
10900;SDS011;5503;53.208;10.392;2023-04-03T12:01:50;6.30;;;2.83;;
10900;SDS011;5503;53.208;10.392;2023-04-03T12:04:19;3.10;;;1.30;;
10900;SDS011;5503;53.208;10.392;2023-04-03T12:12:42;3.30;;;1.30;;
10900;SDS011;5503;53.208;10.392;2023-04-03T12:21:23;7.13;;;1.45;;
10900;SDS011;5503;53.208;10.392;2023-04-03T12:24:25;4.45;;;1.60;;
10900;SDS011;5503;53.208;10.392;2023-04-03T12:27:03;5.83;;;1.40;;
10900;SDS011;5503;53.208;10.392;2023-04-03T12:29:37;3.63;;;1.42;;
10900;SDS011;5503;53.208;10.392;2023-04-03T12:32:13;3.40;;;1.50;;
10900;SDS011;5503;53.208;10.392;2023-04-03T12:34:56;6.50;;;1.70;;
10900;SDS011;5503;53.208;10.392;2023-04-03T12:37:39;4.82;;;1.90;;
10900;SDS011;5503;53.208;10.392;2023-04-03T12:40:28;7.20;;;2.40;;
10900;SDS011;5503;53.208;10.392;2023-04-03T12:45:56;5.30;;;1.35;;
10900;SDS011;5503;53.208;10.392;2023-04-03T12:48:29;5.55;;;1.45;;
10900;SDS011;5503;53.208;10.392;2023-04-03T12:50:57;3.38;;;1.60;;
10900;SDS011;5503;53.208;10.392;2023-04-03T12:53:26;4.47;;;1.50;;
10900;SDS011;5503;53.208;10.392;2023-04-03T12:55:57;4.65;;;1.40;;
10900;SDS011;5503;53.208;10.392;2023-04-03T12:58:47;4.68;;;1.73;;
10900;SDS011;5503;53.208;10.392;2023-04-03T13:01:15;3.20;;;1.25;;
10900;SDS011;5503;53.208;10.392;2023-04-03T13:03:44;4.35;;;1.42;;
10900;SDS011;5503;53.208;10.392;2023-04-03T13:06:14;6.17;;;2.23;;
10900;SDS011;5503;53.208;10.392;2023-04-03T13:08:48;3.03;;;1.25;;
10900;SDS011;5503;53.208;10.392;2023-04-03T13:11:16;4.03;;;1.52;;
10900;SDS011;5503;53.208;10.392;2023-04-03T13:13:56;3.58;;;1.50;;
10900;SDS011;5503;53.208;10.392;2023-04-03T13:16:25;3.10;;;1.40;;
10900;SDS011;5503;53.208;10.392;2023-04-03T13:18:52;3.67;;;1.50;;
10900;SDS011;5503;53.208;10.392;2023-04-03T13:21:20;4.72;;;1.80;;
10900;SDS011;5503;53.208;10.392;2023-04-03T13:23:51;4.47;;;1.77;;
10900;SDS011;5503;53.208;10.392;2023-04-03T13:26:20;4.13;;;1.50;;
10900;SDS011;5503;53.208;10.392;2023-04-03T13:28:49;3.97;;;1.77;;
10900;SDS011;5503;53.208;10.392;2023-04-03T13:31:22;5.53;;;1.53;;
10900;SDS011;5503;53.208;10.392;2023-04-03T13:33:54;3.53;;;1.30;;
10900;SDS011;5503;53.208;10.392;2023-04-03T13:36:24;4.60;;;1.40;;
10900;SDS011;5503;53.208;10.392;2023-04-03T13:38:57;3.50;;;1.40;;
10900;SDS011;5503;53.208;10.392;2023-04-03T13:41:26;5.15;;;1.33;;
10900;SDS011;5503;53.208;10.392;2023-04-03T13:43:56;4.70;;;1.53;;
10900;SDS011;5503;53.208;10.392;2023-04-03T13:46:26;4.28;;;1.40;;
10900;SDS011;5503;53.208;10.392;2023-04-03T13:48:54;3.10;;;1.40;;
10900;SDS011;5503;53.208;10.392;2023-04-03T13:51:23;4.72;;;1.40;;
10900;SDS011;5503;53.208;10.392;2023-04-03T13:53:52;5.38;;;1.30;;
10900;SDS011;5503;53.208;10.392;2023-04-03T13:56:24;3.07;;;1.30;;
10900;SDS011;5503;53.208;10.392;2023-04-03T13:58:57;3.42;;;1.33;;
10900;SDS011;5503;53.208;10.392;2023-04-03T14:01:34;4.50;;;1.27;;
10900;SDS011;5503;53.208;10.392;2023-04-03T14:04:12;5.07;;;1.23;;
10900;SDS011;5503;53.208;10.392;2023-04-03T14:06:42;3.30;;;1.00;;
10900;SDS011;5503;53.208;10.392;2023-04-03T14:09:09;5.93;;;1.30;;
10900;SDS011;5503;53.208;10.392;2023-04-03T14:11:36;3.22;;;1.10;;
10900;SDS011;5503;53.208;10.392;2023-04-03T14:14:05;4.68;;;1.25;;
10900;SDS011;5503;53.208;10.392;2023-04-03T14:16:41;4.50;;;1.45;;
10900;SDS011;5503;53.208;10.392;2023-04-03T14:19:17;6.90;;;2.97;;
10900;SDS011;5503;53.208;10.392;2023-04-03T14:21:46;4.10;;;1.60;;
10900;SDS011;5503;53.208;10.392;2023-04-03T14:24:14;4.75;;;1.80;;
10900;SDS011;5503;53.208;10.392;2023-04-03T14:26:41;4.00;;;1.60;;
10900;SDS011;5503;53.208;10.392;2023-04-03T14:29:09;5.75;;;1.30;;
10900;SDS011;5503;53.208;10.392;2023-04-03T14:31:37;4.57;;;1.50;;
10900;SDS011;5503;53.208;10.392;2023-04-03T14:34:06;5.23;;;1.50;;
10900;SDS011;5503;53.208;10.392;2023-04-03T14:36:33;5.05;;;1.50;;
10900;SDS011;5503;53.208;10.392;2023-04-03T14:39:00;4.20;;;1.48;;
10900;SDS011;5503;53.208;10.392;2023-04-03T14:41:27;5.13;;;1.20;;
10900;SDS011;5503;53.208;10.392;2023-04-03T14:43:54;3.40;;;1.40;;
10900;SDS011;5503;53.208;10.392;2023-04-03T14:46:24;3.53;;;1.30;;
10900;SDS011;5503;53.208;10.392;2023-04-03T14:48:54;3.30;;;1.30;;
10900;SDS011;5503;53.208;10.392;2023-04-03T14:51:22;3.92;;;1.30;;
10900;SDS011;5503;53.208;10.392;2023-04-03T14:53:49;4.10;;;1.55;;
10900;SDS011;5503;53.208;10.392;2023-04-03T14:56:18;4.65;;;1.52;;
10900;SDS011;5503;53.208;10.392;2023-04-03T14:58:48;3.10;;;1.33;;
10900;SDS011;5503;53.208;10.392;2023-04-03T15:01:15;6.28;;;1.58;;
10900;SDS011;5503;53.208;10.392;2023-04-03T15:03:43;5.00;;;2.55;;
10900;SDS011;5503;53.208;10.392;2023-04-03T15:06:10;7.30;;;1.45;;
10900;SDS011;5503;53.208;10.392;2023-04-03T15:08:40;5.35;;;1.80;;
10900;SDS011;5503;53.208;10.392;2023-04-03T15:11:08;3.63;;;1.60;;
10900;SDS011;5503;53.208;10.392;2023-04-03T15:13:36;3.42;;;1.40;;
10900;SDS011;5503;53.208;10.392;2023-04-03T15:16:04;3.22;;;1.42;;
10900;SDS011;5503;53.208;10.392;2023-04-03T15:18:33;4.18;;;1.60;;
10900;SDS011;5503;53.208;10.392;2023-04-03T15:21:04;3.00;;;1.58;;
10900;SDS011;5503;53.208;10.392;2023-04-03T15:23:31;4.83;;;1.83;;
10900;SDS011;5503;53.208;10.392;2023-04-03T15:26:00;5.13;;;2.70;;
10900;SDS011;5503;53.208;10.392;2023-04-03T15:28:27;4.93;;;1.85;;
10900;SDS011;5503;53.208;10.392;2023-04-03T15:30:57;5.38;;;2.60;;